EAI58Z EIDW-EGPH

Flight info

Callsign EAI58Z
Flight time 0h 52m
Altitude 17000
Route ROTEV1N ROTEV P600 TUNSO
Aircraft AT76/M-SDFGIRY/S

Departure

Time 2026-05-07 18:21
Airport Dublin Airport (EIDW)

Arrival

Time 2026-05-07 19:13
Airport Edinburgh Airport (EGPH)
Time Latitude Longitude Altitude Speed Heading
2026-05-07 17:54 53.42911 -6.24971 207 ft 0 kts 184°
2026-05-07 18:13 53.42905 -6.24971 207 ft 2 kts 180°
2026-05-07 18:13 53.42882 -6.24971 213 ft 5 kts 180°
2026-05-07 18:13 53.42844 -6.25004 209 ft 7 kts 226°
2026-05-07 18:13 53.42797 -6.25071 209 ft 10 kts 236°
2026-05-07 18:14 53.42797 -6.25200 213 ft 13 kts 277°
2026-05-07 18:14 53.42875 -6.25302 209 ft 17 kts 336°
2026-05-07 18:14 53.42998 -6.25391 209 ft 21 kts 336°
2026-05-07 18:14 53.43139 -6.25493 215 ft 22 kts 337°
2026-05-07 18:15 53.43280 -6.25593 213 ft 22 kts 336°
2026-05-07 18:15 53.43406 -6.25611 207 ft 12 kts 54°
2026-05-07 18:15 53.43402 -6.25481 207 ft 14 kts 97°
2026-05-07 18:15 53.43391 -6.25291 207 ft 19 kts 96°
2026-05-07 18:16 53.43379 -6.25054 207 ft 21 kts 94°
2026-05-07 18:16 53.43366 -6.24837 208 ft 17 kts 96°
2026-05-07 18:16 53.43357 -6.24655 210 ft 14 kts 94°
2026-05-07 18:16 53.43396 -6.24561 208 ft 8 kts
2026-05-07 18:17 53.43459 -6.24552 209 ft 10 kts
2026-05-07 18:17 53.43520 -6.24556 212 ft 7 kts 321°
2026-05-07 18:17 53.43525 -6.24579 213 ft 0 kts 276°
2026-05-07 18:20 53.43525 -6.24580 213 ft 1 kts 276°
2026-05-07 18:20 53.43536 -6.24787 209 ft 46 kts 275°
2026-05-07 18:20 53.43584 -6.25666 206 ft 103 kts 275°
2026-05-07 18:20 53.43661 -6.27066 380 ft 126 kts 274°
2026-05-07 18:21 53.43814 -6.28485 909 ft 125 kts 289°
2026-05-07 18:21 53.44359 -6.29618 1434 ft 131 kts 321°
2026-05-07 18:21 53.45264 -6.29967 1952 ft 135 kts 346°
2026-05-07 18:21 53.46161 -6.30371 2414 ft 134 kts 335°
2026-05-07 18:22 53.47062 -6.30895 2636 ft 147 kts 334°
2026-05-07 18:22 53.47739 -6.31323 2596 ft 165 kts 335°
2026-05-07 18:22 53.49347 -6.31149 2848 ft 190 kts 16°
2026-05-07 18:22 53.50616 -6.30477 3296 ft 192 kts 13°
2026-05-07 18:23 53.51897 -6.29856 3723 ft 191 kts 13°
2026-05-07 18:23 53.53185 -6.29255 4103 ft 192 kts 12°
2026-05-07 18:23 53.54476 -6.28664 4492 ft 192 kts 12°
2026-05-07 18:23 53.55770 -6.28078 4854 ft 193 kts 12°
2026-05-07 18:24 53.57070 -6.27493 5222 ft 194 kts 12°
2026-05-07 18:24 53.58379 -6.26912 5569 ft 195 kts 12°
2026-05-07 18:24 53.59699 -6.26338 5942 ft 196 kts 11°
2026-05-07 18:24 53.61007 -6.25767 6298 ft 198 kts 12°
2026-05-07 18:25 53.62340 -6.25191 6640 ft 198 kts 12°
2026-05-07 18:25 53.63673 -6.24595 6978 ft 199 kts 12°
2026-05-07 18:25 53.65013 -6.23995 7319 ft 200 kts 12°
2026-05-07 18:25 53.66360 -6.23380 7653 ft 199 kts 14°
2026-05-07 18:26 53.67640 -6.22430 7963 ft 203 kts 27°
2026-05-07 18:26 53.68878 -6.21262 8297 ft 204 kts 28°
2026-05-07 18:26 53.70118 -6.20083 8636 ft 204 kts 28°
2026-05-07 18:26 53.71365 -6.18926 8963 ft 205 kts 26°
2026-05-07 18:27 53.72638 -6.17815 9296 ft 206 kts 25°
2026-05-07 18:27 53.73923 -6.16724 9635 ft 208 kts 25°
2026-05-07 18:27 53.75218 -6.15626 9948 ft 209 kts 25°
2026-05-07 18:27 53.76527 -6.14514 10239 ft 211 kts 25°
2026-05-07 18:28 53.77827 -6.13420 10506 ft 213 kts 25°
2026-05-07 18:28 53.79151 -6.12307 10813 ft 212 kts 25°
2026-05-07 18:28 53.80486 -6.11209 11083 ft 213 kts 25°
2026-05-07 18:28 53.81821 -6.10089 11347 ft 215 kts 25°
2026-05-07 18:29 53.83163 -6.08943 11606 ft 216 kts 25°
2026-05-07 18:29 53.84509 -6.07788 11864 ft 217 kts 25°
2026-05-07 18:29 53.85863 -6.06632 12115 ft 219 kts 25°
2026-05-07 18:29 53.87230 -6.05470 12359 ft 221 kts 25°
2026-05-07 18:30 53.88604 -6.04299 12623 ft 222 kts 25°
2026-05-07 18:30 53.89985 -6.03122 12871 ft 223 kts 25°
2026-05-07 18:30 53.91355 -6.01953 13120 ft 224 kts 25°
2026-05-07 18:30 53.92768 -6.00744 13369 ft 225 kts 25°
2026-05-07 18:31 53.94153 -5.99560 13601 ft 226 kts 25°
2026-05-07 18:31 53.95572 -5.98359 13827 ft 227 kts 24°
2026-05-07 18:31 53.96991 -5.97163 14044 ft 228 kts 24°
2026-05-07 18:31 53.98419 -5.95955 14247 ft 229 kts 25°
2026-05-07 18:32 53.99848 -5.94734 14466 ft 230 kts 25°
2026-05-07 18:32 54.01282 -5.93506 14686 ft 231 kts 25°
2026-05-07 18:32 54.02720 -5.92269 14882 ft 232 kts 25°
2026-05-07 18:32 54.04163 -5.91026 15084 ft 233 kts 25°
2026-05-07 18:33 54.05618 -5.89776 15268 ft 234 kts 25°
2026-05-07 18:33 54.07072 -5.88524 15467 ft 235 kts 25°
2026-05-07 18:33 54.08532 -5.87264 15637 ft 236 kts 25°
2026-05-07 18:33 54.09984 -5.86013 15811 ft 237 kts 25°
2026-05-07 18:34 54.11454 -5.84740 16006 ft 237 kts 25°
2026-05-07 18:34 54.12931 -5.83464 16203 ft 238 kts 25°
2026-05-07 18:34 54.14413 -5.82182 16390 ft 239 kts 25°
2026-05-07 18:34 54.15901 -5.80894 16572 ft 240 kts 25°
2026-05-07 18:35 54.17399 -5.79598 16751 ft 241 kts 25°
2026-05-07 18:35 54.18906 -5.78289 16853 ft 245 kts 25°
2026-05-07 18:35 54.20447 -5.76951 16900 ft 252 kts 25°
2026-05-07 18:35 54.22026 -5.75577 16927 ft 258 kts 25°
2026-05-07 18:36 54.23643 -5.74171 16936 ft 264 kts 25°
2026-05-07 18:36 54.25293 -5.72736 16940 ft 268 kts 26°
2026-05-07 18:36 54.26975 -5.71270 16938 ft 273 kts 26°
2026-05-07 18:36 54.28678 -5.69787 16935 ft 276 kts 26°
2026-05-07 18:37 54.30399 -5.68284 16935 ft 279 kts 26°
2026-05-07 18:37 54.32136 -5.66766 16938 ft 281 kts 26°
2026-05-07 18:37 54.33862 -5.65258 16938 ft 283 kts 26°
2026-05-07 18:37 54.35622 -5.63718 16932 ft 285 kts 26°
2026-05-07 18:38 54.37393 -5.62167 16937 ft 286 kts 26°
2026-05-07 18:38 54.39170 -5.60618 16936 ft 287 kts 26°
2026-05-07 18:38 54.40947 -5.59038 16933 ft 287 kts 26°
2026-05-07 18:38 54.42720 -5.57436 16940 ft 288 kts 26°
2026-05-07 18:39 54.44370 -5.55542 16938 ft 286 kts 47°
2026-05-07 18:39 54.45515 -5.52763 16941 ft 286 kts 59°
2026-05-07 18:39 54.46596 -5.49865 16935 ft 288 kts 58°
2026-05-07 18:39 54.47764 -5.47111 16935 ft 289 kts 52°
2026-05-07 18:40 54.49069 -5.44490 16935 ft 289 kts 49°
2026-05-07 18:40 54.50425 -5.41919 16939 ft 290 kts 49°
2026-05-07 18:40 54.51779 -5.39340 16933 ft 290 kts 49°
2026-05-07 18:40 54.53108 -5.36736 16935 ft 290 kts 50°
2026-05-07 18:41 54.54430 -5.34101 16940 ft 290 kts 50°
2026-05-07 18:41 54.55755 -5.31449 16941 ft 291 kts 50°
2026-05-07 18:41 54.57073 -5.28813 16938 ft 291 kts 50°
2026-05-07 18:41 54.58393 -5.26169 16942 ft 291 kts 50°
2026-05-07 18:42 54.59711 -5.23524 16941 ft 291 kts 50°
2026-05-07 18:42 54.61032 -5.20871 16941 ft 291 kts 50°
2026-05-07 18:42 54.62345 -5.18226 16939 ft 291 kts 50°
2026-05-07 18:42 54.63644 -5.15607 16941 ft 291 kts 50°
2026-05-07 18:43 54.64953 -5.12949 16943 ft 291 kts 51°
2026-05-07 18:43 54.66263 -5.10276 16939 ft 291 kts 51°
2026-05-07 18:43 54.67568 -5.07609 16943 ft 291 kts 51°
2026-05-07 18:43 54.68883 -5.04941 16942 ft 291 kts 50°
2026-05-07 18:44 54.70198 -5.02286 16945 ft 291 kts 50°
2026-05-07 18:44 54.71514 -4.99629 16943 ft 291 kts 50°
2026-05-07 18:44 54.72835 -4.96955 16949 ft 291 kts 50°
2026-05-07 18:44 54.74143 -4.94299 16950 ft 291 kts 50°
2026-05-07 18:45 54.75462 -4.91620 16946 ft 291 kts 51°
2026-05-07 18:45 54.76773 -4.88950 16943 ft 291 kts 51°
2026-05-07 18:45 54.78066 -4.86312 16946 ft 291 kts 51°
2026-05-07 18:45 54.79377 -4.83636 16950 ft 291 kts 51°
2026-05-07 18:46 54.80686 -4.80965 16950 ft 291 kts 51°
2026-05-07 18:46 54.81997 -4.78285 16951 ft 291 kts 51°
2026-05-07 18:46 54.83305 -4.75610 16956 ft 291 kts 51°
2026-05-07 18:46 54.84615 -4.72927 16952 ft 291 kts 51°
2026-05-07 18:47 54.85920 -4.70253 16953 ft 291 kts 51°
2026-05-07 18:47 54.87233 -4.67554 16953 ft 291 kts 51°
2026-05-07 18:47 54.88541 -4.64864 16954 ft 291 kts 51°
2026-05-07 18:47 54.89828 -4.62218 16953 ft 291 kts 51°
2026-05-07 18:48 54.91133 -4.59531 16952 ft 291 kts 51°
2026-05-07 18:48 54.92440 -4.56836 16959 ft 291 kts 51°
2026-05-07 18:48 54.93747 -4.54136 16955 ft 291 kts 51°
2026-05-07 18:48 54.95053 -4.51439 16958 ft 291 kts 51°
2026-05-07 18:49 54.96357 -4.48742 16956 ft 291 kts 51°
2026-05-07 18:49 54.97656 -4.46050 16959 ft 291 kts 51°
2026-05-07 18:49 54.98959 -4.43346 16958 ft 291 kts 51°
2026-05-07 18:49 55.00261 -4.40644 16963 ft 291 kts 51°
2026-05-07 18:50 55.01564 -4.37938 16956 ft 291 kts 51°
2026-05-07 18:50 55.02849 -4.35264 16959 ft 291 kts 51°
2026-05-07 18:50 55.04167 -4.32520 16960 ft 292 kts 51°
2026-05-07 18:50 55.05452 -4.29837 16955 ft 292 kts 51°
2026-05-07 18:51 55.06753 -4.27124 16962 ft 292 kts 51°
2026-05-07 18:51 55.08056 -4.24401 16962 ft 292 kts 51°
2026-05-07 18:51 55.09358 -4.21680 16965 ft 292 kts 51°
2026-05-07 18:51 55.10658 -4.18955 16961 ft 292 kts 51°
2026-05-07 18:52 55.11959 -4.16226 16963 ft 292 kts 51°
2026-05-07 18:52 55.13260 -4.13496 16964 ft 292 kts 51°
2026-05-07 18:52 55.14561 -4.10764 16959 ft 292 kts 51°
2026-05-07 18:52 55.15857 -4.08038 16963 ft 292 kts 51°
2026-05-07 18:53 55.17261 -4.05518 16958 ft 292 kts 43°
2026-05-07 18:53 55.18803 -4.03160 16793 ft 298 kts 41°
2026-05-07 18:53 55.20381 -4.00748 16550 ft 305 kts 42°
2026-05-07 18:53 55.21954 -3.98203 16292 ft 311 kts 44°
2026-05-07 18:54 55.23527 -3.95555 16041 ft 316 kts 44°
2026-05-07 18:54 55.25125 -3.92881 15785 ft 320 kts 44°
2026-05-07 18:54 55.26737 -3.90193 15551 ft 317 kts 44°
2026-05-07 18:54 55.28333 -3.87540 15383 ft 314 kts 44°
2026-05-07 18:55 55.29921 -3.84890 15204 ft 316 kts 44°
2026-05-07 18:55 55.31515 -3.82225 14990 ft 318 kts 44°
2026-05-07 18:55 55.33128 -3.79525 14708 ft 323 kts 44°
2026-05-07 18:55 55.34756 -3.76794 14410 ft 322 kts 44°
2026-05-07 18:56 55.36361 -3.74093 14167 ft 317 kts 44°
2026-05-07 18:56 55.37942 -3.71437 13912 ft 312 kts 44°
2026-05-07 18:56 55.39508 -3.68807 13631 ft 311 kts 44°
2026-05-07 18:56 55.41062 -3.66189 13357 ft 308 kts 44°
2026-05-07 18:57 55.42609 -3.63584 13086 ft 306 kts 44°
2026-05-07 18:57 55.44132 -3.61014 12910 ft 301 kts 44°
2026-05-07 18:57 55.45633 -3.58476 12750 ft 297 kts 44°
2026-05-07 18:57 55.47119 -3.55962 12525 ft 296 kts 44°
2026-05-07 18:58 55.48608 -3.53441 12243 ft 297 kts 44°
2026-05-07 18:58 55.50101 -3.50908 11957 ft 298 kts 44°
2026-05-07 18:58 55.51599 -3.48365 11671 ft 299 kts 44°
2026-05-07 18:58 55.53093 -3.45827 11379 ft 299 kts 44°
2026-05-07 18:59 55.54571 -3.43312 11105 ft 298 kts 44°
2026-05-07 18:59 55.56068 -3.40763 10839 ft 297 kts 44°
2026-05-07 18:59 55.57553 -3.38229 10559 ft 297 kts 44°
2026-05-07 18:59 55.59031 -3.35707 10283 ft 296 kts 44°
2026-05-07 19:00 55.60510 -3.33181 10004 ft 295 kts 44°
2026-05-07 19:00 55.61984 -3.30652 9749 ft 294 kts 44°
2026-05-07 19:00 55.63453 -3.28143 9476 ft 293 kts 44°
2026-05-07 19:00 55.64913 -3.25636 9207 ft 292 kts 44°
2026-05-07 19:01 55.66377 -3.23130 8942 ft 292 kts 44°
2026-05-07 19:01 55.67832 -3.20630 8664 ft 291 kts 44°
2026-05-07 19:01 55.69285 -3.18132 8405 ft 291 kts 44°
2026-05-07 19:01 55.70740 -3.15641 8173 ft 289 kts 43°
2026-05-07 19:02 55.72425 -3.13808 8043 ft 282 kts 22°
2026-05-07 19:02 55.74239 -3.12469 8000 ft 281 kts 20°
2026-05-07 19:02 55.76029 -3.11205 7979 ft 280 kts 20°
2026-05-07 19:02 55.77849 -3.09953 7819 ft 283 kts 19°
2026-05-07 19:03 55.79697 -3.08686 7508 ft 286 kts 19°
2026-05-07 19:03 55.81560 -3.07419 7193 ft 286 kts 19°
2026-05-07 19:03 55.83422 -3.06158 6900 ft 287 kts 19°
2026-05-07 19:03 55.85291 -3.04896 6606 ft 287 kts 19°
2026-05-07 19:04 55.87159 -3.03642 6301 ft 287 kts 19°
2026-05-07 19:04 55.89003 -3.02399 6046 ft 285 kts 19°
2026-05-07 19:04 55.90846 -3.01163 5836 ft 281 kts 19°
2026-05-07 19:04 55.92675 -2.99934 5626 ft 279 kts 19°
2026-05-07 19:05 55.94463 -2.98722 5418 ft 270 kts 19°
2026-05-07 19:05 55.96188 -2.97541 5174 ft 261 kts 19°
2026-05-07 19:05 55.97864 -2.96390 4911 ft 254 kts 19°
2026-05-07 19:05 55.99481 -2.95289 4728 ft 241 kts 16°
2026-05-07 19:06 56.00548 -2.95041 4646 ft 227 kts 350°
2026-05-07 19:06 56.03240 -2.96834 4426 ft 195 kts 301°
2026-05-07 19:06 56.03640 -2.98961 4372 ft 172 kts 271°
2026-05-07 19:07 56.03771 -3.01039 4320 ft 164 kts 271°
2026-05-07 19:07 56.03897 -3.03033 4228 ft 160 kts 270°
2026-05-07 19:07 56.04012 -3.04999 4110 ft 158 kts 270°
2026-05-07 19:07 56.04121 -3.06963 3960 ft 159 kts 269°
2026-05-07 19:08 56.04202 -3.08932 3647 ft 163 kts 262°
2026-05-07 19:08 56.03835 -3.10779 3409 ft 157 kts 242°
2026-05-07 19:08 56.03397 -3.12508 3197 ft 146 kts 241°
2026-05-07 19:08 56.02901 -3.14042 2996 ft 141 kts 234°
2026-05-07 19:09 56.02364 -3.15516 2812 ft 141 kts 234°
2026-05-07 19:09 56.01847 -3.17015 2610 ft 141 kts 236°
2026-05-07 19:09 56.01349 -3.18521 2429 ft 141 kts 235°
2026-05-07 19:09 56.00848 -3.20033 2228 ft 142 kts 234°
2026-05-07 19:10 56.00333 -3.21535 2043 ft 142 kts 233°
2026-05-07 19:10 55.99811 -3.23054 1839 ft 144 kts 233°
2026-05-07 19:10 55.99288 -3.24575 1644 ft 144 kts 234°
2026-05-07 19:10 55.98772 -3.26123 1448 ft 145 kts 235°
2026-05-07 19:11 55.98263 -3.27628 1250 ft 136 kts 235°
2026-05-07 19:11 55.97812 -3.28985 1044 ft 117 kts 235°
2026-05-07 19:11 55.97412 -3.30140 897 ft 103 kts 234°
2026-05-07 19:11 55.97053 -3.31201 752 ft 98 kts 234°
2026-05-07 19:12 55.96702 -3.32230 621 ft 98 kts 235°
2026-05-07 19:12 55.96339 -3.33307 506 ft 106 kts 236°
2026-05-07 19:12 55.95947 -3.34466 353 ft 109 kts 236°
2026-05-07 19:12 55.95567 -3.35581 191 ft 102 kts 236°
2026-05-07 19:13 55.95216 -3.36613 110 ft 90 kts 236°
2026-05-07 19:13 55.94943 -3.37420 108 ft 61 kts 237°
2026-05-07 19:13 55.94778 -3.37900 112 ft 34 kts 239°
2026-05-07 19:13 55.94702 -3.38059 110 ft 12 kts 188°
2026-05-07 19:14 55.94650 -3.38012 111 ft 9 kts 148°
2026-05-07 19:14 55.94589 -3.37933 112 ft 13 kts 120°
2026-05-07 19:14 55.94627 -3.37777 112 ft 19 kts 59°
2026-05-07 19:14 55.94705 -3.37545 111 ft 24 kts 58°
2026-05-07 19:15 55.94796 -3.37276 110 ft 26 kts 60°
2026-05-07 19:15 55.94887 -3.37005 112 ft 25 kts 58°
2026-05-07 19:15 55.94915 -3.36824 112 ft 8 kts 140°
2026-05-07 19:15 55.94867 -3.36780 111 ft 7 kts 165°
2026-05-07 19:16 55.94829 -3.36778 113 ft 5 kts 180°
2026-05-07 19:16 55.94803 -3.36769 113 ft 4 kts 146°
2026-05-07 19:16 55.94800 -3.36684 113 ft 7 kts 89°
2026-05-07 19:16 55.94801 -3.36636 113 ft 0 kts 89°